createdAt,value
2018-12-14T00:01:02.242Z,2.30
2018-12-14T00:03:29.708Z,2.30
2018-12-14T00:05:57.173Z,2.30
2018-12-14T00:08:24.619Z,2.30
2018-12-14T00:10:52.128Z,2.30
2018-12-14T00:13:19.575Z,2.30
2018-12-14T00:15:47.073Z,2.30
2018-12-14T00:18:14.547Z,2.30
2018-12-14T00:20:42.000Z,2.30
2018-12-14T00:23:09.533Z,2.30
2018-12-14T00:25:37.072Z,2.30
2018-12-14T00:28:04.536Z,2.20
2018-12-14T00:30:32.015Z,2.30
2018-12-14T00:32:59.489Z,2.30
2018-12-14T00:35:27.192Z,2.30
2018-12-14T00:37:54.670Z,2.30
2018-12-14T00:40:22.239Z,2.30
2018-12-14T00:42:49.746Z,2.30
2018-12-14T00:45:17.220Z,2.30
2018-12-14T00:47:44.681Z,2.30
2018-12-14T00:50:12.229Z,2.30
2018-12-14T00:52:39.685Z,2.30
2018-12-14T00:55:07.315Z,2.30
2018-12-14T00:57:34.772Z,2.30
2018-12-14T01:00:02.301Z,2.30
2018-12-14T01:02:29.763Z,2.30
2018-12-14T01:04:57.297Z,2.30
2018-12-14T01:07:24.785Z,2.30
2018-12-14T01:09:52.288Z,2.30
2018-12-14T01:12:19.755Z,2.30
2018-12-14T01:14:47.219Z,2.30
2018-12-14T01:17:14.818Z,2.30
2018-12-14T01:19:42.280Z,2.30
2018-12-14T01:22:09.739Z,2.30
2018-12-14T01:24:37.263Z,2.30
2018-12-14T01:27:04.727Z,2.30
2018-12-14T01:29:32.215Z,2.30
2018-12-14T01:31:59.748Z,2.30
2018-12-14T01:34:27.289Z,2.30
2018-12-14T01:36:54.801Z,2.30
2018-12-14T01:39:22.263Z,2.30
2018-12-14T01:41:49.730Z,2.30
2018-12-14T01:44:17.192Z,2.20
2018-12-14T01:46:44.776Z,2.30
2018-12-14T01:49:12.290Z,2.30
2018-12-14T01:51:39.778Z,2.30
2018-12-14T01:54:07.229Z,2.30
2018-12-14T01:56:34.702Z,2.30
2018-12-14T01:59:02.154Z,2.30
2018-12-14T02:01:29.656Z,2.30
2018-12-14T02:03:57.190Z,2.30
2018-12-14T02:06:24.705Z,2.30
2018-12-14T02:08:52.178Z,2.30
2018-12-14T02:11:19.671Z,2.30
2018-12-14T02:13:47.158Z,2.20
2018-12-14T02:18:48.676Z,2.30
2018-12-14T02:21:16.148Z,2.30
2018-12-14T02:23:43.629Z,2.30
2018-12-14T02:26:11.155Z,2.30
2018-12-14T02:28:38.672Z,2.20
2018-12-14T02:31:06.139Z,2.30
2018-12-14T02:33:33.703Z,2.30
2018-12-14T02:36:01.228Z,2.20
2018-12-14T02:38:28.700Z,2.20
2018-12-14T02:40:56.160Z,2.30
2018-12-14T02:45:57.974Z,2.30
2018-12-14T02:48:25.422Z,2.30
2018-12-14T02:50:52.902Z,2.30
2018-12-14T02:53:20.363Z,2.30
2018-12-14T02:55:47.836Z,2.30
2018-12-14T02:58:15.294Z,2.30
2018-12-14T03:00:42.838Z,2.20
2018-12-14T03:03:10.296Z,2.20
2018-12-14T03:05:37.769Z,2.20
2018-12-14T03:08:05.245Z,2.20
2018-12-14T03:10:32.707Z,2.30
2018-12-14T03:13:00.184Z,2.20
2018-12-14T03:15:27.730Z,2.30
2018-12-14T03:17:55.201Z,2.20
2018-12-14T03:20:22.653Z,2.20
2018-12-14T03:22:50.118Z,2.20
2018-12-14T03:25:17.581Z,2.20
2018-12-14T03:27:45.070Z,2.30
2018-12-14T03:30:12.616Z,2.30
2018-12-14T03:32:40.233Z,2.30
2018-12-14T03:35:07.923Z,2.30
2018-12-14T03:37:35.420Z,2.30
2018-12-14T03:40:03.033Z,2.30
2018-12-14T03:42:34.354Z,2.30
2018-12-14T03:44:59.961Z,2.30
2018-12-14T03:47:27.417Z,2.30
2018-12-14T03:49:54.882Z,2.30
2018-12-14T03:52:22.418Z,2.20
2018-12-14T03:54:49.890Z,2.20
2018-12-14T03:57:17.355Z,2.10
2018-12-14T03:59:44.818Z,2.20
2018-12-14T04:02:12.294Z,2.10
2018-12-14T04:04:39.777Z,2.20
2018-12-14T04:07:07.230Z,2.10
2018-12-14T04:09:34.707Z,2.10
2018-12-14T04:12:02.195Z,2.10
2018-12-14T04:14:29.652Z,2.20
2018-12-14T04:16:57.198Z,2.10
2018-12-14T04:19:24.667Z,2.10
2018-12-14T04:21:52.208Z,2.10
2018-12-14T04:24:21.567Z,2.10
2018-12-14T04:26:49.082Z,2.10
2018-12-14T04:29:16.684Z,2.20
2018-12-14T04:31:44.513Z,2.20
2018-12-14T04:34:12.052Z,2.10
2018-12-14T04:36:39.697Z,2.10
2018-12-14T04:39:07.272Z,2.10
2018-12-14T04:41:34.841Z,2.10
2018-12-14T04:44:02.456Z,2.20
2018-12-14T04:46:30.278Z,2.10
2018-12-14T04:48:57.766Z,2.20
2018-12-14T04:51:25.257Z,2.20
2018-12-14T04:53:52.697Z,2.20
2018-12-14T04:56:20.171Z,2.20
2018-12-14T04:58:47.624Z,2.20
2018-12-14T05:01:15.093Z,2.10
2018-12-14T05:03:42.605Z,2.10
2018-12-14T05:06:10.093Z,2.20
2018-12-14T05:08:37.541Z,2.20
2018-12-14T05:11:05.001Z,2.10
2018-12-14T05:13:33.365Z,2.10
2018-12-14T05:16:00.836Z,2.10
2018-12-14T05:18:29.119Z,2.10
2018-12-14T05:20:56.576Z,2.10
2018-12-14T05:23:24.058Z,2.10
2018-12-14T05:25:51.637Z,2.10
2018-12-14T05:28:19.124Z,2.10
2018-12-14T05:30:46.638Z,2.10
2018-12-14T05:33:14.136Z,2.10
2018-12-14T05:35:41.648Z,2.10
2018-12-14T05:38:09.140Z,2.20
2018-12-14T05:40:36.605Z,2.20
2018-12-14T05:43:04.065Z,2.20
2018-12-14T05:45:31.549Z,2.10
2018-12-14T05:47:58.999Z,2.10
2018-12-14T05:50:26.479Z,2.10
2018-12-14T05:52:54.080Z,2.10
2018-12-14T05:55:21.656Z,2.10
2018-12-14T05:57:49.108Z,2.10
2018-12-14T06:00:16.639Z,2.10
2018-12-14T06:02:44.093Z,2.10
2018-12-14T06:05:11.583Z,2.10
2018-12-14T06:07:39.037Z,2.20
2018-12-14T06:10:06.572Z,2.20
2018-12-14T06:12:34.080Z,2.10
2018-12-14T06:15:01.618Z,2.10
2018-12-14T06:17:29.116Z,2.10
2018-12-14T06:19:56.569Z,2.10
2018-12-14T06:22:24.024Z,2.00
2018-12-14T06:24:51.519Z,2.10
2018-12-14T06:27:19.012Z,2.10
2018-12-14T06:29:46.488Z,2.10
2018-12-14T06:32:13.960Z,2.10
2018-12-14T06:34:41.451Z,2.10
2018-12-14T06:37:09.170Z,2.00
2018-12-14T06:39:36.640Z,2.10
2018-12-14T06:42:04.429Z,2.10
2018-12-14T06:44:32.509Z,2.10
2018-12-14T06:46:59.973Z,2.10
2018-12-14T06:49:27.455Z,2.10
2018-12-14T06:51:54.932Z,2.10
2018-12-14T06:54:22.393Z,2.10
2018-12-14T06:56:49.875Z,2.10
2018-12-14T06:59:17.421Z,2.00
2018-12-14T07:01:44.871Z,1.90
2018-12-14T07:04:12.344Z,1.80
2018-12-14T07:06:39.794Z,1.80
2018-12-14T07:09:07.324Z,1.80
2018-12-14T07:11:34.803Z,1.90
2018-12-14T07:14:03.601Z,1.90
2018-12-14T07:16:31.226Z,2.00
2018-12-14T07:18:58.718Z,1.90
2018-12-14T07:21:26.186Z,2.00
2018-12-14T07:23:53.635Z,2.00
2018-12-14T07:26:21.109Z,2.00
2018-12-14T07:28:49.235Z,2.00
2018-12-14T07:31:16.698Z,2.00
2018-12-14T07:33:44.172Z,2.00
2018-12-14T07:36:11.658Z,2.00
2018-12-14T07:38:39.138Z,2.10
2018-12-14T07:41:06.603Z,2.10
2018-12-14T07:43:34.079Z,2.10
2018-12-14T07:46:01.717Z,2.00
2018-12-14T07:48:29.193Z,2.00
2018-12-14T07:50:57.360Z,2.00
2018-12-14T07:53:24.824Z,2.00
2018-12-14T07:55:52.296Z,2.00
2018-12-14T07:58:19.766Z,2.00
2018-12-14T08:00:47.299Z,2.00
2018-12-14T08:03:14.826Z,2.10
2018-12-14T08:05:42.360Z,2.10
2018-12-14T08:08:10.527Z,2.00
2018-12-14T08:10:38.196Z,2.00
2018-12-14T08:13:05.723Z,2.00
2018-12-14T08:15:33.332Z,2.00
2018-12-14T08:18:00.817Z,2.10
2018-12-14T08:20:28.288Z,2.10
2018-12-14T08:22:55.762Z,2.00
2018-12-14T08:25:23.301Z,2.00
2018-12-14T08:27:50.876Z,2.10
2018-12-14T08:30:18.349Z,2.10
2018-12-14T08:32:45.801Z,2.10
2018-12-14T08:35:13.328Z,2.00
2018-12-14T08:37:40.804Z,2.00
2018-12-14T08:40:08.378Z,2.10
2018-12-14T08:42:35.848Z,2.00
2018-12-14T08:45:03.541Z,2.00
2018-12-14T08:47:30.993Z,2.00
2018-12-14T08:49:58.467Z,2.00
2018-12-14T08:52:25.958Z,2.00
2018-12-14T08:54:53.429Z,2.00
2018-12-14T08:57:20.957Z,2.00
2018-12-14T08:59:48.460Z,2.00
2018-12-14T09:02:15.933Z,2.00
2018-12-14T09:04:43.389Z,2.00
2018-12-14T09:07:10.873Z,2.10
2018-12-14T09:09:38.353Z,2.10
2018-12-14T09:12:05.825Z,2.10
2018-12-14T09:14:33.316Z,2.10
2018-12-14T09:17:02.177Z,2.10
2018-12-14T09:19:29.643Z,2.00
2018-12-14T09:21:57.173Z,2.00
2018-12-14T09:24:24.644Z,2.10
2018-12-14T09:26:52.114Z,2.10
2018-12-14T09:29:19.644Z,2.10
2018-12-14T09:31:47.335Z,2.10
2018-12-14T09:34:14.792Z,2.10
2018-12-14T09:36:42.291Z,2.10
2018-12-14T09:39:09.756Z,2.10
2018-12-14T09:41:37.237Z,2.10
2018-12-14T09:44:04.715Z,2.10
2018-12-14T09:46:37.043Z,2.10
2018-12-14T09:49:01.625Z,2.10
2018-12-14T09:51:29.104Z,2.10
2018-12-14T09:53:56.611Z,2.00
2018-12-14T09:56:24.078Z,2.00
2018-12-14T09:58:51.566Z,2.00
2018-12-14T10:01:19.017Z,2.00
2018-12-14T10:03:46.653Z,2.00
2018-12-14T10:06:15.844Z,2.10
2018-12-14T10:08:43.571Z,2.10
2018-12-14T10:11:11.322Z,2.10
2018-12-14T10:13:38.954Z,2.10
2018-12-14T10:16:06.583Z,2.10
2018-12-14T10:18:34.051Z,2.20
2018-12-14T10:21:01.503Z,2.30
2018-12-14T10:23:28.978Z,2.30
2018-12-14T10:25:56.433Z,2.30
2018-12-14T10:28:23.905Z,2.30
2018-12-14T10:30:51.358Z,2.30
2018-12-14T10:33:18.825Z,2.20
2018-12-14T10:35:46.362Z,2.20
2018-12-14T10:38:13.834Z,2.20
2018-12-14T10:40:41.269Z,2.10
2018-12-14T10:43:08.744Z,2.10
2018-12-14T10:45:36.505Z,2.10
2018-12-14T10:48:04.080Z,2.10
2018-12-14T10:50:38.764Z,2.10
2018-12-14T10:53:02.942Z,2.20
2018-12-14T10:55:30.414Z,2.10
2018-12-14T10:57:58.061Z,2.10
2018-12-14T11:00:31.224Z,2.10
2018-12-14T11:02:58.698Z,2.20
2018-12-14T11:05:26.212Z,2.10
2018-12-14T11:07:53.698Z,2.20
2018-12-14T11:10:21.152Z,2.20
2018-12-14T11:12:48.621Z,2.20
2018-12-14T11:15:16.095Z,2.20
2018-12-14T11:17:43.572Z,2.20
2018-12-14T11:20:11.087Z,2.20
2018-12-14T11:22:39.409Z,2.20
2018-12-14T11:25:07.088Z,2.30
2018-12-14T11:27:34.535Z,2.40
2018-12-14T11:30:01.996Z,2.40
2018-12-14T11:32:29.460Z,2.40
2018-12-14T11:34:57.524Z,2.50
2018-12-14T11:37:25.007Z,2.40
2018-12-14T11:39:52.465Z,2.40
2018-12-14T11:42:19.920Z,2.40
2018-12-14T11:44:47.392Z,2.30
2018-12-14T11:47:18.126Z,2.30
2018-12-14T11:49:44.334Z,2.30
2018-12-14T11:52:11.824Z,2.30
2018-12-14T11:54:39.347Z,2.30
2018-12-14T11:57:06.822Z,2.30
2018-12-14T11:59:34.272Z,2.30
2018-12-14T12:02:01.817Z,2.30
2018-12-14T12:04:30.774Z,2.30
2018-12-14T12:06:58.245Z,2.30
2018-12-14T12:09:25.722Z,2.30
2018-12-14T12:11:53.191Z,2.20
2018-12-14T12:14:26.790Z,2.20
2018-12-14T12:16:50.164Z,2.30
2018-12-14T12:19:17.676Z,2.20
2018-12-14T12:21:45.141Z,2.20
2018-12-14T12:24:12.597Z,2.30
2018-12-14T12:26:40.072Z,2.30
2018-12-14T12:29:07.529Z,2.30
2018-12-14T12:31:35.001Z,2.20
2018-12-14T12:34:02.479Z,2.20
2018-12-14T12:36:29.984Z,2.20
2018-12-14T12:38:57.456Z,2.20
2018-12-14T12:41:24.930Z,2.30
2018-12-14T12:46:26.214Z,2.20
2018-12-14T12:48:53.929Z,2.30
2018-12-14T12:51:21.635Z,2.20
2018-12-14T12:53:49.117Z,2.30
2018-12-14T12:56:18.526Z,2.20
2018-12-14T12:58:46.025Z,2.20
2018-12-14T13:01:13.485Z,2.30
2018-12-14T13:03:40.937Z,2.30
2018-12-14T13:06:08.445Z,2.30
2018-12-14T13:08:35.896Z,2.30
2018-12-14T13:11:03.367Z,2.30
2018-12-14T13:13:30.845Z,2.30
2018-12-14T13:15:58.294Z,2.20
2018-12-14T13:18:26.011Z,2.20
2018-12-14T13:20:53.464Z,2.20
2018-12-14T13:23:21.022Z,2.30
2018-12-14T13:25:48.512Z,2.30
2018-12-14T13:28:16.221Z,2.30
2018-12-14T13:30:43.828Z,2.30
2018-12-14T13:33:11.452Z,2.20
2018-12-14T13:35:39.256Z,2.20
2018-12-14T13:38:06.716Z,2.30
2018-12-14T13:40:34.269Z,2.40
2018-12-14T13:43:01.772Z,2.40
2018-12-14T13:45:29.226Z,2.40
2018-12-14T13:47:56.870Z,2.30
2018-12-14T13:50:24.461Z,2.30
2018-12-14T13:52:52.015Z,2.30
2018-12-14T13:55:19.715Z,2.30
2018-12-14T13:57:47.203Z,2.30
2018-12-14T14:00:14.653Z,2.30
2018-12-14T14:02:42.123Z,2.30
2018-12-14T14:05:09.580Z,2.30
2018-12-14T14:07:37.049Z,2.30
2018-12-14T14:10:06.327Z,2.20
2018-12-14T14:12:33.805Z,2.20
2018-12-14T14:15:01.278Z,2.20
2018-12-14T14:17:28.734Z,2.20
2018-12-14T14:19:56.245Z,2.20
2018-12-14T14:22:23.933Z,2.30
2018-12-14T14:24:51.538Z,2.30
2018-12-14T14:27:19.012Z,2.30
2018-12-14T14:29:46.456Z,2.30
2018-12-14T14:32:13.931Z,2.30
2018-12-14T14:34:41.557Z,2.30
2018-12-14T14:37:09.093Z,2.30
2018-12-14T14:39:36.569Z,2.30
2018-12-14T14:42:04.094Z,2.20
2018-12-14T14:44:31.541Z,2.30
2018-12-14T14:46:59.433Z,2.30
2018-12-14T14:49:27.069Z,2.30
2018-12-14T14:51:55.005Z,2.20
2018-12-14T14:54:22.480Z,2.20
2018-12-14T14:56:49.969Z,2.20
2018-12-14T14:59:18.676Z,2.20
2018-12-14T15:01:46.209Z,2.20
2018-12-14T15:04:13.685Z,2.20
2018-12-14T15:06:41.508Z,2.10
2018-12-14T15:09:09.481Z,2.10
2018-12-14T15:11:37.026Z,2.10
2018-12-14T15:14:04.559Z,2.10
2018-12-14T15:16:32.084Z,2.10
2018-12-14T15:18:59.544Z,2.10
2018-12-14T15:21:27.010Z,2.10
2018-12-14T15:23:54.486Z,2.10
2018-12-14T15:26:21.932Z,2.10
2018-12-14T15:28:49.397Z,2.10
2018-12-14T15:31:16.854Z,2.10
2018-12-14T15:33:44.316Z,2.20
2018-12-14T15:36:11.909Z,2.10
2018-12-14T15:38:39.364Z,2.20
2018-12-14T15:41:06.831Z,2.10
2018-12-14T15:43:34.292Z,2.10
2018-12-14T15:46:01.789Z,2.10
2018-12-14T15:48:29.268Z,2.00
2018-12-14T15:50:57.425Z,2.10
2018-12-14T15:53:24.944Z,2.10
2018-12-14T15:55:52.440Z,2.10
2018-12-14T15:58:19.920Z,2.10
2018-12-14T16:00:47.369Z,2.10
2018-12-14T16:03:14.940Z,2.20
2018-12-14T16:05:42.541Z,2.20
2018-12-14T16:08:10.008Z,2.20
2018-12-14T16:10:37.494Z,2.20
2018-12-14T16:13:04.962Z,2.20
2018-12-14T16:15:32.437Z,2.10
2018-12-14T16:18:00.032Z,2.10
2018-12-14T16:20:27.537Z,2.20
2018-12-14T16:22:55.083Z,2.10
2018-12-14T16:25:22.781Z,2.10
2018-12-14T16:27:50.244Z,2.10
2018-12-14T16:30:17.713Z,2.10
2018-12-14T16:32:45.155Z,2.10
2018-12-14T16:35:12.613Z,2.10
2018-12-14T16:37:40.065Z,2.00
2018-12-14T16:40:07.666Z,2.00
2018-12-14T16:42:35.255Z,2.10
2018-12-14T16:45:02.902Z,2.00
2018-12-14T16:47:30.456Z,2.10
2018-12-14T16:49:57.938Z,2.10
2018-12-14T16:52:25.528Z,2.10
2018-12-14T16:54:52.989Z,2.10
2018-12-14T16:57:20.458Z,2.10
2018-12-14T16:59:47.921Z,2.00
2018-12-14T17:02:15.454Z,2.20
2018-12-14T17:04:43.159Z,2.10
2018-12-14T17:07:10.668Z,2.10
2018-12-14T17:09:38.238Z,2.00
2018-12-14T17:12:06.569Z,2.00
2018-12-14T17:14:34.073Z,2.00
2018-12-14T17:17:01.578Z,2.00
2018-12-14T17:19:29.048Z,2.00
2018-12-14T17:21:56.525Z,2.00
2018-12-14T17:24:24.000Z,2.00
2018-12-14T17:26:51.557Z,2.00
2018-12-14T17:29:19.051Z,2.00
2018-12-14T17:31:46.574Z,2.00
2018-12-14T17:34:14.041Z,1.90
2018-12-14T17:36:41.579Z,2.00
2018-12-14T17:39:09.053Z,1.90
2018-12-14T17:41:36.529Z,1.90
2018-12-14T17:44:04.042Z,2.00
2018-12-14T17:46:31.919Z,2.00
2018-12-14T17:48:59.535Z,2.00
2018-12-14T17:51:27.051Z,2.00
2018-12-14T17:53:54.537Z,1.90
2018-12-14T17:56:22.004Z,1.90
2018-12-14T17:58:49.498Z,1.90
2018-12-14T18:01:16.954Z,2.00
2018-12-14T18:03:44.417Z,1.90
2018-12-14T18:06:11.871Z,2.00
2018-12-14T18:08:39.314Z,2.00
2018-12-14T18:11:06.785Z,2.00
2018-12-14T18:13:34.238Z,2.00
2018-12-14T18:16:01.811Z,2.00
2018-12-14T18:18:29.251Z,2.00
2018-12-14T18:20:56.791Z,2.00
2018-12-14T18:23:24.248Z,2.00
2018-12-14T18:25:51.708Z,1.90
2018-12-14T18:28:19.228Z,1.90
2018-12-14T18:30:46.691Z,1.80
2018-12-14T18:33:14.213Z,1.80
2018-12-14T18:35:41.684Z,1.80
2018-12-14T18:38:09.165Z,1.90
2018-12-14T18:40:36.685Z,1.90
2018-12-14T18:43:04.168Z,1.90
2018-12-14T18:45:31.636Z,1.90
2018-12-14T18:47:59.189Z,1.90
2018-12-14T18:50:26.646Z,1.80
2018-12-14T18:52:54.122Z,1.80
2018-12-14T18:55:21.581Z,1.80
2018-12-14T18:57:49.051Z,1.80
2018-12-14T19:00:16.514Z,1.80
2018-12-14T19:02:43.962Z,1.80
2018-12-14T19:05:11.436Z,1.80
2018-12-14T19:07:39.039Z,1.80
2018-12-14T19:10:06.865Z,1.80
2018-12-14T19:12:34.697Z,1.80
2018-12-14T19:15:02.193Z,1.90
2018-12-14T19:17:29.977Z,1.90
2018-12-14T19:19:58.323Z,1.90
2018-12-14T19:22:25.852Z,1.90
2018-12-14T19:24:53.432Z,1.90
2018-12-14T19:27:20.977Z,1.90
2018-12-14T19:29:48.581Z,2.00
2018-12-14T19:32:16.116Z,1.90
2018-12-14T19:34:43.604Z,1.90
2018-12-14T19:37:11.981Z,1.90
2018-12-14T19:39:39.727Z,1.90
2018-12-14T19:42:07.632Z,1.90
2018-12-14T19:44:35.518Z,1.90
2018-12-14T19:47:03.405Z,1.90
2018-12-14T19:49:31.725Z,1.90
2018-12-14T19:52:01.314Z,1.90
2018-12-14T19:54:29.269Z,1.80
2018-12-14T19:56:57.368Z,1.80
2018-12-14T19:59:24.848Z,1.80
2018-12-14T20:01:52.958Z,1.80
2018-12-14T20:04:20.816Z,1.80
2018-12-14T20:06:48.534Z,1.80
2018-12-14T20:09:16.184Z,1.80
2018-12-14T20:11:43.990Z,1.90
2018-12-14T20:14:11.692Z,1.90
2018-12-14T20:16:39.381Z,1.90
2018-12-14T20:19:07.665Z,1.90
2018-12-14T20:21:35.147Z,1.90
2018-12-14T20:24:03.230Z,1.90
2018-12-14T20:26:30.745Z,1.90
2018-12-14T20:28:58.226Z,1.90
2018-12-14T20:31:25.755Z,1.80
2018-12-14T20:33:53.223Z,1.80
2018-12-14T20:36:20.683Z,1.70
2018-12-14T20:38:48.152Z,1.80
2018-12-14T20:41:15.619Z,1.80
2018-12-14T20:43:43.138Z,1.80
2018-12-14T20:46:10.592Z,1.80
2018-12-14T20:48:38.067Z,1.80
2018-12-14T20:51:05.825Z,1.80
2018-12-14T20:53:33.388Z,1.80
2018-12-14T20:56:01.089Z,1.80
2018-12-14T20:58:30.327Z,1.80
2018-12-14T21:00:57.873Z,1.80
2018-12-14T21:03:25.327Z,1.80
2018-12-14T21:05:52.873Z,1.80
2018-12-14T21:08:20.444Z,1.80
2018-12-14T21:10:48.023Z,1.90
2018-12-14T21:13:15.498Z,1.80
2018-12-14T21:15:42.988Z,1.80
2018-12-14T21:18:10.476Z,1.80
2018-12-14T21:20:37.961Z,1.80
2018-12-14T21:23:05.469Z,1.80
2018-12-14T21:25:32.930Z,1.90
2018-12-14T21:28:00.396Z,1.80
2018-12-14T21:30:27.846Z,1.80
2018-12-14T21:32:55.296Z,1.90
2018-12-14T21:35:22.747Z,1.80
2018-12-14T21:37:50.217Z,1.90
2018-12-14T21:40:17.692Z,1.90
2018-12-14T21:42:45.145Z,1.90
2018-12-14T21:45:12.899Z,1.80
2018-12-14T21:47:40.399Z,1.90
2018-12-14T21:50:07.953Z,1.90
2018-12-14T21:52:35.433Z,1.90
2018-12-14T21:55:03.392Z,1.90
2018-12-14T21:57:30.852Z,1.80
2018-12-14T21:59:58.334Z,1.80
2018-12-14T22:02:25.864Z,1.80
2018-12-14T22:04:53.331Z,1.80
2018-12-14T22:07:20.842Z,1.80
2018-12-14T22:09:48.365Z,1.80
2018-12-14T22:12:15.957Z,1.80
2018-12-14T22:14:43.392Z,1.70
2018-12-14T22:17:10.858Z,1.80
2018-12-14T22:19:38.359Z,1.80
2018-12-14T22:22:05.890Z,1.90
2018-12-14T22:24:33.358Z,1.90
2018-12-14T22:27:00.820Z,1.90
2018-12-14T22:29:28.271Z,1.90
2018-12-14T22:31:55.740Z,1.90
2018-12-14T22:34:23.820Z,1.90
2018-12-14T22:36:51.359Z,1.90
2018-12-14T22:39:19.482Z,1.80
2018-12-14T22:41:46.951Z,1.80
2018-12-14T22:44:14.434Z,1.80
2018-12-14T22:46:45.567Z,1.70
2018-12-14T22:51:45.335Z,1.70
2018-12-14T22:54:12.805Z,1.70
2018-12-14T22:56:40.496Z,1.70
2018-12-14T22:59:07.969Z,1.80
2018-12-14T23:01:35.487Z,1.70
2018-12-14T23:04:02.931Z,1.70
2018-12-14T23:06:30.404Z,1.80
2018-12-14T23:08:58.060Z,1.80
2018-12-14T23:11:25.516Z,1.80
2018-12-14T23:13:52.985Z,1.80
2018-12-14T23:16:20.441Z,1.70
2018-12-14T23:18:47.906Z,1.70
2018-12-14T23:21:15.528Z,1.70
2018-12-14T23:23:43.027Z,1.70
2018-12-14T23:26:10.481Z,1.60
2018-12-14T23:28:37.955Z,1.60
2018-12-14T23:31:05.420Z,1.60
2018-12-14T23:33:32.882Z,1.60
2018-12-14T23:36:00.330Z,1.60
2018-12-14T23:38:27.795Z,1.60
2018-12-14T23:40:55.338Z,1.60
2018-12-14T23:43:22.836Z,1.70
2018-12-14T23:45:50.295Z,1.70
2018-12-14T23:48:17.783Z,1.60
2018-12-14T23:50:45.234Z,1.60
2018-12-14T23:53:12.764Z,1.60
2018-12-14T23:55:40.250Z,1.60
2018-12-14T23:58:07.718Z,1.60
